Time;durP1;ratioP1;P1;durP2;ratioP2;P2;SDS_P1;SDS_P2;PMS_P1;PMS_P2;Temp;Humidity;BMP_temperature;BMP_pressure;BME280_temperature;BME280_humidity;BME280_pressure;Samples;Min_cycle;Max_cycle;Signal;HPM_P1;HPM_P2
2023/03/15 00:02:03;;;;;;;0.47;0.40;;;10.20;65.40;;;;;;5114709;28;20207;-80
2023/03/15 00:04:31;;;;;;;0.30;0.30;;;10.20;64.60;;;;;;5119851;28;20178;-81
2023/03/15 00:06:58;;;;;;;0.60;0.30;;;10.20;64.10;;;;;;5118013;28;20184;-86
2023/03/15 00:09:24;;;;;;;0.60;0.60;;;10.20;64.00;;;;;;5097708;28;20211;-85
2023/03/15 00:11:50;;;;;;;1.67;0.43;;;10.20;64.00;;;;;;5098399;28;20171;-83
2023/03/15 00:14:17;;;;;;;1.90;0.67;;;10.20;64.40;;;;;;5123644;28;20214;-85
2023/03/15 00:16:43;;;;;;;0.40;0.40;;;10.30;63.80;;;;;;5132636;28;20166;-84
2023/03/15 00:19:10;;;;;;;1.13;0.40;;;10.30;63.90;;;;;;5122773;28;20179;-83
2023/03/15 00:21:36;;;;;;;0.30;0.30;;;10.30;64.00;;;;;;5114894;28;20175;-86
2023/03/15 00:24:02;;;;;;;0.40;0.40;;;10.20;64.00;;;;;;5119770;28;20162;-85
2023/03/15 00:26:28;;;;;;;0.33;0.33;;;10.20;64.30;;;;;;5116851;28;20173;-81
2023/03/15 00:28:54;;;;;;;1.03;0.33;;;10.10;64.40;;;;;;5123821;28;20542;-87
2023/03/15 00:31:22;;;;;;;0.30;0.30;;;10.20;63.90;;;;;;5114472;28;20688;-86
2023/03/15 00:33:52;;;;;;;0.50;0.33;;;10.10;63.80;;;;;;5114425;28;20207;-85
2023/03/15 00:36:22;;;;;;;0.33;0.33;;;10.10;63.70;;;;;;5114516;28;20180;-88
2023/03/15 00:38:48;;;;;;;0.50;0.37;;;10.20;63.90;;;;;;5114607;28;20181;-82
2023/03/15 00:41:16;;;;;;;0.70;0.60;;;10.10;63.80;;;;;;5114552;28;20179;-86
2023/03/15 00:43:42;;;;;;;0.40;0.40;;;10.20;63.90;;;;;;5114249;28;20215;-84
2023/03/15 00:46:08;;;;;;;0.50;0.50;;;10.10;63.60;;;;;;5095754;28;20216;-85
2023/03/15 00:48:34;;;;;;;0.43;0.40;;;10.10;63.50;;;;;;5092508;28;20208;-86
2023/03/15 00:51:22;;;;;;;0.50;0.50;;;10.10;63.30;;;;;;5093611;28;20175;-86
2023/03/15 00:53:50;;;;;;;0.40;0.40;;;10.10;63.60;;;;;;5096028;28;20598;-87
2023/03/15 00:56:21;;;;;;;0.73;0.50;;;10.10;63.60;;;;;;5095256;28;20180;-78
2023/03/15 00:58:46;;;;;;;0.30;0.30;;;10.10;63.70;;;;;;5092952;28;20171;-78
2023/03/15 01:01:15;;;;;;;0.43;0.43;;;10.20;63.60;;;;;;5076547;28;20170;-78
2023/03/15 01:03:41;;;;;;;0.50;0.50;;;10.20;63.50;;;;;;5092262;28;20175;-74
2023/03/15 01:06:27;;;;;;;0.30;0.30;;;10.20;63.40;;;;;;5092451;28;20248;-73
2023/03/15 01:08:55;;;;;;;0.40;0.40;;;10.10;63.80;;;;;;5092547;28;20192;-77
2023/03/15 01:11:23;;;;;;;0.30;0.30;;;10.10;63.80;;;;;;5093095;28;20649;-73
2023/03/15 01:13:51;;;;;;;0.23;0.23;;;10.10;63.90;;;;;;5110415;28;20189;-87
2023/03/15 01:16:17;;;;;;;0.47;0.47;;;10.10;63.90;;;;;;5087818;28;20219;-73
2023/03/15 01:18:43;;;;;;;0.30;0.30;;;10.10;63.80;;;;;;5101135;28;20174;-75
2023/03/15 01:21:12;;;;;;;0.40;0.40;;;10.10;64.10;;;;;;5106480;28;20198;-86
2023/03/15 01:23:39;;;;;;;0.40;0.40;;;10.10;64.00;;;;;;5078384;28;20171;-85
2023/03/15 01:26:07;;;;;;;0.40;0.40;;;10.10;64.10;;;;;;5078599;28;20178;-82
2023/03/15 01:28:33;;;;;;;0.40;0.40;;;10.10;64.60;;;;;;5097182;28;20167;-81
2023/03/15 01:30:59;;;;;;;1.07;0.60;;;10.10;64.30;;;;;;5097729;28;20264;-87
2023/03/15 01:33:25;;;;;;;0.30;0.30;;;10.10;64.20;;;;;;5097588;28;20308;-84
2023/03/15 01:36:06;;;;;;;0.27;0.27;;;10.10;64.40;;;;;;5096862;28;20253;-87
2023/03/15 01:38:33;;;;;;;0.60;0.53;;;10.10;64.40;;;;;;5097245;28;20181;-86
2023/03/15 01:40:59;;;;;;;0.60;0.60;;;10.00;64.80;;;;;;5096978;28;20568;-88
2023/03/15 01:43:26;;;;;;;0.40;0.40;;;10.00;65.70;;;;;;5096687;28;20310;-87
2023/03/15 01:46:01;;;;;;;2.20;0.40;;;10.10;65.10;;;;;;5099144;28;20731;-87
2023/03/15 01:48:43;;;;;;;0.67;0.43;;;10.10;65.80;;;;;;5112299;28;20177;-80
2023/03/15 01:51:20;;;;;;;0.57;0.43;;;10.10;66.10;;;;;;5089320;28;20291;-76
2023/03/15 01:53:52;;;;;;;0.77;0.50;;;10.10;66.50;;;;;;5096553;28;20259;-78
2023/03/15 01:56:19;;;;;;;1.30;0.50;;;10.10;66.50;;;;;;5101945;28;20173;-73
2023/03/15 01:58:46;;;;;;;0.70;0.60;;;10.00;66.70;;;;;;5106836;28;20177;-72
2023/03/15 02:01:14;;;;;;;0.50;0.50;;;10.00;67.00;;;;;;5097377;28;20168;-74
2023/03/15 02:03:45;;;;;;;0.50;0.50;;;10.00;67.30;;;;;;5096198;28;20167;-88
2023/03/15 02:06:16;;;;;;;0.30;0.30;;;9.90;68.40;;;;;;5096643;28;20163;-84
2023/03/15 02:08:48;;;;;;;0.50;0.50;;;9.90;68.90;;;;;;5097022;28;20231;-86
2023/03/15 02:11:16;;;;;;;1.33;0.60;;;9.80;68.90;;;;;;5097322;28;20159;-84
2023/03/15 02:13:43;;;;;;;1.30;0.47;;;9.90;69.20;;;;;;5080115;28;20178;-85
2023/03/15 02:16:09;;;;;;;0.53;0.50;;;9.90;69.20;;;;;;5098473;28;20179;-84
2023/03/15 02:18:35;;;;;;;2.63;0.57;;;9.90;69.30;;;;;;5107142;28;20175;-83
2023/03/15 02:21:10;;;;;;;0.70;0.70;;;9.90;69.50;;;;;;5112711;28;20224;-83
2023/03/15 02:23:36;;;;;;;0.50;0.40;;;9.80;69.90;;;;;;5110788;28;20197;-78
2023/03/15 02:26:13;;;;;;;0.90;0.60;;;9.80;70.20;;;;;;5095866;28;20590;-75
2023/03/15 02:28:41;;;;;;;0.47;0.47;;;9.80;70.50;;;;;;5077921;28;20244;-85
2023/03/15 02:31:06;;;;;;;0.40;0.40;;;9.80;70.80;;;;;;5076823;28;20281;-73
2023/03/15 02:33:40;;;;;;;0.40;0.40;;;9.80;70.90;;;;;;5076280;28;20257;-81
2023/03/15 02:36:22;;;;;;;0.90;0.40;;;9.90;71.00;;;;;;5094547;28;20220;-77
2023/03/15 02:38:49;;;;;;;0.50;0.30;;;9.80;71.10;;;;;;5095333;28;20161;-73
2023/03/15 02:41:20;;;;;;;0.33;0.33;;;9.80;71.10;;;;;;5095306;28;20223;-73
2023/03/15 02:43:48;;;;;;;0.67;0.30;;;9.80;71.30;;;;;;5089058;28;20285;-74
2023/03/15 02:46:16;;;;;;;0.70;0.70;;;9.80;71.50;;;;;;5113760;28;20656;-73
2023/03/15 02:48:43;;;;;;;0.40;0.40;;;9.80;71.40;;;;;;5124761;28;20202;-77
2023/03/15 02:51:21;;;;;;;0.47;0.40;;;9.80;71.70;;;;;;5118843;28;20223;-86
2023/03/15 02:53:47;;;;;;;0.50;0.50;;;9.80;71.80;;;;;;5114972;28;20169;-86
2023/03/15 02:56:13;;;;;;;0.40;0.40;;;9.80;71.90;;;;;;5116180;28;20182;-87
2023/03/15 02:58:39;;;;;;;0.43;0.43;;;9.70;72.10;;;;;;5116393;28;20178;-79
2023/03/15 03:01:05;;;;;;;1.57;0.50;;;9.80;72.00;;;;;;5114967;28;20214;-84
2023/03/15 03:03:31;;;;;;;0.70;0.70;;;9.80;72.00;;;;;;5114923;28;20498;-86
2023/03/15 03:05:56;;;;;;;0.47;0.47;;;9.80;72.20;;;;;;5114942;28;20169;-85
2023/03/15 03:08:22;;;;;;;0.40;0.40;;;9.70;72.50;;;;;;5118581;28;20174;-84
2023/03/15 03:10:48;;;;;;;0.50;0.50;;;9.70;72.80;;;;;;5123230;28;20182;-78
2023/03/15 03:13:14;;;;;;;0.37;0.30;;;9.70;72.60;;;;;;5115836;28;20185;-85
2023/03/15 03:15:44;;;;;;;0.80;0.60;;;9.70;72.50;;;;;;5115520;27;20177;-74
2023/03/15 03:18:10;;;;;;;0.67;0.43;;;9.70;72.60;;;;;;5128441;28;20158;-77
2023/03/15 03:20:36;;;;;;;0.80;0.43;;;9.70;72.60;;;;;;5117749;28;20185;-79
2023/03/15 03:23:05;;;;;;;0.40;0.40;;;9.70;72.60;;;;;;5114064;28;20171;-81
2023/03/15 03:25:32;;;;;;;0.53;0.53;;;9.70;72.60;;;;;;5115650;28;20177;-85
2023/03/15 03:27:58;;;;;;;0.40;0.40;;;9.80;72.50;;;;;;5129618;28;20168;-83
2023/03/15 03:30:24;;;;;;;0.27;0.27;;;9.70;71.60;;;;;;5126358;28;20213;-84
2023/03/15 03:32:50;;;;;;;0.40;0.40;;;9.80;72.00;;;;;;5120166;28;20168;-81
2023/03/15 03:35:16;;;;;;;0.50;0.50;;;9.70;72.20;;;;;;5115508;28;20587;-87
2023/03/15 03:37:42;;;;;;;0.87;0.50;;;9.70;72.30;;;;;;5114556;28;20231;-75
2023/03/15 03:40:08;;;;;;;0.30;0.30;;;9.70;71.80;;;;;;5114484;28;20716;-78
2023/03/15 03:42:34;;;;;;;0.50;0.37;;;9.70;71.50;;;;;;5115315;28;20185;-74
2023/03/15 03:45:00;;;;;;;0.50;0.40;;;9.70;71.40;;;;;;5096832;28;20261;-72
2023/03/15 03:47:26;;;;;;;0.50;0.50;;;9.60;71.80;;;;;;5093739;28;20212;-83
2023/03/15 03:49:52;;;;;;;0.50;0.50;;;9.60;71.40;;;;;;5094450;28;20748;-86
2023/03/15 03:52:18;;;;;;;0.60;0.57;;;9.70;71.40;;;;;;5094783;28;20201;-80
2023/03/15 03:54:43;;;;;;;0.20;0.20;;;9.60;71.10;;;;;;5094077;28;20174;-86
2023/03/15 03:57:10;;;;;;;0.30;0.30;;;9.60;71.80;;;;;;5094272;28;20206;-81
2023/03/15 03:59:35;;;;;;;0.40;0.40;;;9.60;71.10;;;;;;5094550;28;20175;-86
2023/03/15 04:02:01;;;;;;;0.30;0.30;;;9.60;71.40;;;;;;5094464;28;20504;-86
2023/03/15 04:04:27;;;;;;;0.40;0.40;;;9.60;71.30;;;;;;5095883;28;20533;-88
2023/03/15 04:06:53;;;;;;;2.47;0.53;;;9.60;70.80;;;;;;5096339;28;20175;-86
2023/03/15 04:09:20;;;;;;;0.43;0.40;;;9.70;70.90;;;;;;5096555;28;20676;-88
2023/03/15 04:11:46;;;;;;;0.43;0.43;;;9.70;70.90;;;;;;5096185;28;20215;-85
2023/03/15 04:14:13;;;;;;;0.30;0.30;;;9.50;71.10;;;;;;5095455;28;20312;-75
2023/03/15 04:16:39;;;;;;;0.40;0.40;;;9.60;70.80;;;;;;5078710;28;20252;-74
2023/03/15 04:19:06;;;;;;;0.60;0.60;;;9.60;70.40;;;;;;5096406;28;20190;-80
2023/03/15 04:21:33;;;;;;;0.30;0.30;;;9.70;69.90;;;;;;5101126;28;20177;-80
2023/03/15 04:23:59;;;;;;;0.40;0.40;;;9.70;69.90;;;;;;5107997;28;20176;-84
2023/03/15 04:26:26;;;;;;;0.30;0.30;;;9.60;69.90;;;;;;5091910;28;20257;-82
2023/03/15 04:28:57;;;;;;;0.50;0.50;;;9.60;69.80;;;;;;5081863;28;20202;-87
2023/03/15 04:31:26;;;;;;;0.40;0.40;;;9.60;70.10;;;;;;5098945;28;20543;-86
2023/03/15 04:33:53;;;;;;;0.37;0.37;;;9.50;70.50;;;;;;5095776;28;20193;-88
2023/03/15 04:36:20;;;;;;;0.53;0.50;;;9.50;69.90;;;;;;5076272;28;20183;-86
2023/03/15 04:38:47;;;;;;;0.40;0.40;;;9.50;70.00;;;;;;5093780;28;20178;-87
2023/03/15 04:41:17;;;;;;;0.50;0.50;;;9.50;69.80;;;;;;5094279;28;20226;-87
2023/03/15 04:43:44;;;;;;;1.70;0.50;;;9.50;69.70;;;;;;5093457;28;20750;-74
2023/03/15 04:46:10;;;;;;;0.57;0.57;;;9.50;69.70;;;;;;5075161;28;20181;-86
2023/03/15 04:48:36;;;;;;;0.40;0.33;;;9.40;69.80;;;;;;5097696;28;20198;-78
2023/03/15 04:51:02;;;;;;;0.43;0.43;;;9.50;69.60;;;;;;5103617;28;20533;-86
2023/03/15 04:53:28;;;;;;;0.53;0.50;;;9.40;70.10;;;;;;5093833;28;20178;-84
2023/03/15 04:55:53;;;;;;;1.23;0.70;;;9.40;69.70;;;;;;5096234;28;20185;-86
2023/03/15 04:58:19;;;;;;;0.70;0.70;;;9.40;69.90;;;;;;5102697;28;20659;-86
2023/03/15 05:00:45;;;;;;;0.50;0.50;;;9.40;69.80;;;;;;5107025;28;20169;-80
2023/03/15 05:03:11;;;;;;;0.50;0.50;;;9.40;69.80;;;;;;5106307;28;20212;-86
2023/03/15 05:05:37;;;;;;;0.87;0.40;;;9.50;69.60;;;;;;5083649;28;20182;-86
2023/03/15 05:08:03;;;;;;;0.40;0.40;;;9.50;70.00;;;;;;5093745;28;20178;-82
2023/03/15 05:10:29;;;;;;;0.30;0.30;;;9.40;69.60;;;;;;5093879;28;20212;-82
2023/03/15 05:12:55;;;;;;;1.63;0.63;;;9.40;69.60;;;;;;5096376;28;20233;-75
2023/03/15 05:15:21;;;;;;;0.60;0.60;;;9.30;70.30;;;;;;5081514;28;20191;-86
2023/03/15 05:17:47;;;;;;;0.30;0.30;;;9.30;70.20;;;;;;5093403;28;20174;-89
2023/03/15 05:20:14;;;;;;;0.50;0.50;;;9.40;70.30;;;;;;5094279;28;20197;-86
2023/03/15 05:22:41;;;;;;;1.03;0.60;;;9.50;69.80;;;;;;5094142;28;20177;-87
2023/03/15 05:25:09;;;;;;;0.53;0.53;;;9.50;70.20;;;;;;5094145;28;20181;-87
2023/03/15 05:27:35;;;;;;;0.63;0.57;;;9.40;70.20;;;;;;5093342;28;20695;-85
2023/03/15 05:30:02;;;;;;;0.40;0.40;;;9.40;70.30;;;;;;5093167;28;20202;-86
2023/03/15 05:32:33;;;;;;;0.33;0.33;;;9.40;70.40;;;;;;5093929;28;20183;-82
2023/03/15 05:35:02;;;;;;;1.53;0.60;;;9.40;70.50;;;;;;5095921;28;20171;-84
2023/03/15 05:37:29;;;;;;;0.60;0.60;;;9.40;70.50;;;;;;5097741;28;20545;-88
2023/03/15 05:39:55;;;;;;;0.47;0.47;;;9.40;70.60;;;;;;5098430;28;20181;-86
2023/03/15 05:42:24;;;;;;;0.77;0.40;;;9.50;70.40;;;;;;5093732;28;20525;-74
2023/03/15 05:44:51;;;;;;;0.67;0.50;;;9.40;70.60;;;;;;5092926;28;20233;-74
2023/03/15 05:47:17;;;;;;;0.57;0.57;;;9.40;70.80;;;;;;5094928;28;20193;-84
2023/03/15 05:49:43;;;;;;;0.97;0.70;;;9.50;70.90;;;;;;5093336;28;20244;-81
2023/03/15 05:52:09;;;;;;;0.93;0.40;;;9.40;70.90;;;;;;5093850;28;20178;-85
2023/03/15 05:54:35;;;;;;;0.40;0.40;;;9.30;71.20;;;;;;5094837;28;20182;-76
2023/03/15 05:57:00;;;;;;;0.60;0.60;;;9.30;71.60;;;;;;5098338;28;20167;-82
2023/03/15 05:59:26;;;;;;;0.30;0.30;;;9.30;71.90;;;;;;5113765;28;20177;-87
2023/03/15 06:01:52;;;;;;;0.70;0.40;;;9.30;72.20;;;;;;5110300;28;20237;-85
2023/03/15 06:04:18;;;;;;;0.57;0.40;;;9.40;72.20;;;;;;5097188;28;20178;-75
2023/03/15 06:06:44;;;;;;;0.70;0.70;;;9.30;72.70;;;;;;5078212;28;20265;-83
2023/03/15 06:09:09;;;;;;;1.07;0.50;;;9.30;72.80;;;;;;5097026;28;20202;-86
2023/03/15 06:11:35;;;;;;;0.40;0.40;;;9.20;73.00;;;;;;5079565;28;20223;-76
2023/03/15 06:14:01;;;;;;;0.37;0.37;;;9.20;73.40;;;;;;5097028;28;20539;-83
2023/03/15 06:16:27;;;;;;;1.23;0.40;;;9.10;73.70;;;;;;5097494;28;20180;-86
2023/03/15 06:18:52;;;;;;;0.57;0.57;;;9.20;74.20;;;;;;5099059;28;20331;-77
2023/03/15 06:21:18;;;;;;;0.50;0.50;;;9.20;74.20;;;;;;5101721;28;20239;-74
2023/03/15 06:23:44;;;;;;;0.40;0.40;;;9.20;74.20;;;;;;5102395;28;20303;-81
2023/03/15 06:26:10;;;;;;;0.27;0.27;;;9.10;74.70;;;;;;5103960;28;20215;-87
2023/03/15 06:28:35;;;;;;;0.30;0.30;;;9.10;74.80;;;;;;5105967;28;20186;-77
2023/03/15 06:31:08;;;;;;;0.20;0.20;;;9.20;74.60;;;;;;5106157;28;20182;-79
2023/03/15 06:33:34;;;;;;;0.50;0.50;;;9.30;74.70;;;;;;5112313;28;20243;-84
2023/03/15 06:36:00;;;;;;;0.30;0.30;;;9.20;74.90;;;;;;5106927;28;20177;-89
2023/03/15 06:38:26;;;;;;;0.47;0.47;;;9.30;75.20;;;;;;5096734;28;20182;-85
2023/03/15 06:40:51;;;;;;;0.30;0.30;;;9.30;75.10;;;;;;5096061;28;20174;-74
2023/03/15 06:43:18;;;;;;;0.23;0.23;;;9.30;74.80;;;;;;5096012;28;20249;-79
2023/03/15 06:45:47;;;;;;;0.50;0.50;;;9.20;75.00;;;;;;5102858;28;20620;-85
2023/03/15 06:48:13;;;;;;;0.30;0.30;;;9.20;75.60;;;;;;5102743;28;20174;-86
2023/03/15 06:50:40;;;;;;;0.47;0.47;;;9.30;76.10;;;;;;5097279;28;20670;-87
2023/03/15 06:53:06;;;;;;;0.30;0.30;;;9.30;75.50;;;;;;5095656;28;20637;-73
2023/03/15 06:55:32;;;;;;;0.53;0.53;;;9.30;76.40;;;;;;5096544;28;20185;-76
2023/03/15 06:57:57;;;;;;;0.53;0.47;;;9.40;75.70;;;;;;5095082;28;20223;-79
2023/03/15 07:00:23;;;;;;;0.30;0.30;;;9.40;75.30;;;;;;5076618;28;20270;-83
2023/03/15 07:02:49;;;;;;;0.40;0.40;;;9.40;75.50;;;;;;5094493;28;20185;-73
2023/03/15 07:05:15;;;;;;;0.50;0.30;;;9.40;75.50;;;;;;5094900;28;20185;-73
2023/03/15 07:07:41;;;;;;;0.40;0.40;;;9.40;75.60;;;;;;5076657;28;20261;-74
2023/03/15 07:10:07;;;;;;;0.43;0.43;;;9.40;75.90;;;;;;5076277;28;20363;-73
2023/03/15 07:12:33;;;;;;;0.30;0.30;;;9.40;76.10;;;;;;5075405;28;20505;-74
2023/03/15 07:14:59;;;;;;;0.40;0.40;;;9.40;75.70;;;;;;5093862;28;20189;-75
2023/03/15 07:17:24;;;;;;;0.47;0.40;;;9.40;76.00;;;;;;5093762;28;20183;-76
2023/03/15 07:19:51;;;;;;;0.30;0.30;;;9.30;75.90;;;;;;5093519;28;20173;-84
2023/03/15 07:22:17;;;;;;;0.20;0.20;;;9.20;76.20;;;;;;5075522;28;20319;-73
2023/03/15 07:24:42;;;;;;;0.43;0.43;;;9.30;76.40;;;;;;5093937;28;20181;-78
2023/03/15 07:27:12;;;;;;;0.30;0.30;;;9.20;76.70;;;;;;5093950;28;20165;-76
2023/03/15 07:29:37;;;;;;;0.40;0.40;;;9.20;76.60;;;;;;5094094;28;20724;-77
2023/03/15 07:32:03;;;;;;;0.20;0.20;;;9.30;77.10;;;;;;5096015;28;20216;-75
2023/03/15 07:34:29;;;;;;;0.50;0.50;;;9.40;77.40;;;;;;5109564;28;20196;-80
2023/03/15 07:36:55;;;;;;;0.30;0.30;;;9.40;77.70;;;;;;5098806;28;20181;-75
2023/03/15 07:39:22;;;;;;;0.40;0.40;;;9.40;78.10;;;;;;5077012;28;20218;-73
2023/03/15 07:41:48;;;;;;;1.47;0.47;;;9.40;78.00;;;;;;5077614;28;20204;-84
2023/03/15 07:44:14;;;;;;;1.17;0.20;;;9.60;78.10;;;;;;5097516;28;20366;-82
2023/03/15 07:46:40;;;;;;;0.50;0.50;;;9.60;77.50;;;;;;5117693;28;20201;-87
2023/03/15 07:49:05;;;;;;;1.77;0.60;;;9.60;77.70;;;;;;5116456;28;20213;-88
2023/03/15 07:51:31;;;;;;;0.83;0.50;;;9.50;78.00;;;;;;5117154;28;20174;-78
2023/03/15 07:53:57;;;;;;;0.30;0.30;;;9.50;78.20;;;;;;5123562;28;20179;-78
2023/03/15 07:56:23;;;;;;;2.10;0.40;;;9.40;79.10;;;;;;5114971;28;20182;-80
2023/03/15 07:58:48;;;;;;;0.60;0.60;;;9.40;79.10;;;;;;5114778;28;20212;-80
2023/03/15 08:01:14;;;;;;;0.80;0.43;;;9.30;78.70;;;;;;5114403;28;20715;-75
2023/03/15 08:03:40;;;;;;;0.30;0.30;;;9.30;78.40;;;;;;5119255;28;20209;-74
2023/03/15 08:06:06;;;;;;;0.40;0.40;;;9.30;78.60;;;;;;5122633;28;20166;-79
2023/03/15 08:08:32;;;;;;;0.40;0.40;;;9.40;79.10;;;;;;5114617;28;20186;-77
2023/03/15 08:10:58;;;;;;;0.50;0.50;;;9.40;78.80;;;;;;5114312;28;20170;-86
2023/03/15 08:13:24;;;;;;;0.40;0.40;;;9.50;79.00;;;;;;5113099;28;20833;-80
2023/03/15 08:15:50;;;;;;;0.40;0.40;;;9.50;79.30;;;;;;5115155;28;20256;-79
2023/03/15 08:18:16;;;;;;;0.87;0.40;;;9.40;79.50;;;;;;5114509;28;20642;-79
2023/03/15 08:20:42;;;;;;;0.30;0.30;;;9.50;79.10;;;;;;5114467;28;20185;-78
2023/03/15 08:23:08;;;;;;;0.20;0.20;;;9.50;78.90;;;;;;5114396;28;20537;-79
2023/03/15 08:25:35;;;;;;;0.30;0.30;;;9.60;78.80;;;;;;5115853;28;20189;-85
2023/03/15 08:28:01;;;;;;;0.63;0.63;;;9.70;79.50;;;;;;5119111;28;20168;-82
2023/03/15 08:30:27;;;;;;;2.27;0.40;;;9.80;79.20;;;;;;5120710;28;20276;-83
2023/03/15 08:32:53;;;;;;;0.40;0.40;;;9.90;78.40;;;;;;5120118;28;20597;-76
2023/03/15 08:35:20;;;;;;;0.30;0.30;;;10.10;77.70;;;;;;5116437;28;20200;-73
2023/03/15 08:37:46;;;;;;;0.70;0.43;;;10.30;77.00;;;;;;5113105;28;20185;-74
2023/03/15 08:40:14;;;;;;;0.20;0.20;;;10.50;76.70;;;;;;5113736;28;20249;-73
2023/03/15 08:42:40;;;;;;;0.30;0.30;;;10.60;76.50;;;;;;5113486;28;20178;-74
2023/03/15 08:45:08;;;;;;;0.43;0.43;;;10.60;75.90;;;;;;5094863;28;20223;-78
2023/03/15 08:47:34;;;;;;;0.37;0.37;;;10.60;75.70;;;;;;5094182;28;20168;-77
2023/03/15 08:50:04;;;;;;;0.30;0.30;;;10.80;75.70;;;;;;5095769;28;20233;-75
2023/03/15 08:52:30;;;;;;;0.30;0.30;;;10.80;75.30;;;;;;5101141;28;20171;-80
2023/03/15 08:54:56;;;;;;;0.37;0.37;;;11.00;75.60;;;;;;5094211;28;20180;-80
2023/03/15 08:57:24;;;;;;;0.23;0.23;;;11.00;74.80;;;;;;5093977;28;20181;-84
2023/03/15 08:59:51;;;;;;;0.63;0.50;;;10.70;75.20;;;;;;5094026;28;20175;-82
2023/03/15 09:02:17;;;;;;;0.30;0.30;;;10.60;75.20;;;;;;5093288;28;20209;-83
2023/03/15 09:04:43;;;;;;;0.40;0.40;;;10.70;75.70;;;;;;5097013;28;20172;-80
2023/03/15 09:07:11;;;;;;;0.30;0.30;;;10.70;75.10;;;;;;5083126;28;20190;-79
2023/03/15 09:09:37;;;;;;;0.30;0.30;;;10.50;74.00;;;;;;5094612;28;20606;-82
2023/03/15 09:12:03;;;;;;;0.73;0.30;;;10.20;72.90;;;;;;5102295;28;20174;-80
2023/03/15 09:14:29;;;;;;;0.73;0.63;;;10.20;72.00;;;;;;5099737;28;20638;-81
2023/03/15 09:16:55;;;;;;;0.20;0.20;;;10.10;70.70;;;;;;5094633;28;20170;-84
2023/03/15 09:19:20;;;;;;;0.10;0.10;;;10.00;71.00;;;;;;5093557;28;20177;-82
2023/03/15 09:21:46;;;;;;;0.20;0.20;;;9.90;71.90;;;;;;5093561;28;20175;-85
2023/03/15 09:24:12;;;;;;;0.23;0.23;;;9.90;71.70;;;;;;5094423;28;20186;-81
2023/03/15 09:26:38;;;;;;;0.30;0.30;;;10.00;70.60;;;;;;5082840;28;20173;-77
2023/03/15 09:29:04;;;;;;;0.30;0.30;;;10.10;70.10;;;;;;5095781;28;20220;-82
2023/03/15 09:31:31;;;;;;;0.20;0.20;;;10.10;69.60;;;;;;5093457;28;20311;-84
2023/03/15 09:33:57;;;;;;;0.30;0.30;;;9.90;70.90;;;;;;5095204;28;20177;-85
2023/03/15 09:36:23;;;;;;;0.30;0.30;;;10.00;70.10;;;;;;5100404;28;20181;-86
2023/03/15 09:38:49;;;;;;;0.30;0.30;;;10.10;69.40;;;;;;5106515;28;20193;-85
2023/03/15 09:41:55;;;;;;;0.30;0.30;;;10.30;69.80;;;;;;5101194;28;20186;-77
2023/03/15 09:44:30;;;;;;;0.30;0.30;;;10.20;69.00;;;;;;5068367;28;20224;-77
2023/03/15 09:47:19;;;;;;;0.40;0.30;;;10.20;70.10;;;;;;5097005;28;20173;-76
2023/03/15 09:49:51;;;;;;;0.40;0.40;;;10.00;70.10;;;;;;5096336;28;20206;-76
2023/03/15 09:52:26;;;;;;;0.20;0.20;;;10.10;70.10;;;;;;5095785;28;20157;-78
2023/03/15 09:55:20;;;;;;;0.30;0.30;;;10.20;70.10;;;;;;5096798;28;20166;-80
2023/03/15 09:57:52;;;;;;;0.30;0.30;;;10.30;70.10;;;;;;5096483;28;20666;-75
2023/03/15 10:00:39;;;;;;;0.37;0.37;;;10.40;69.80;;;;;;5077889;28;20300;-79
2023/03/15 10:03:08;;;;;;;0.43;0.43;;;10.40;70.10;;;;;;5077104;28;20649;-74
2023/03/15 10:05:45;;;;;;;0.27;0.27;;;10.60;70.30;;;;;;5095707;28;20515;-76
2023/03/15 10:08:13;;;;;;;0.20;0.20;;;10.60;69.50;;;;;;5095579;28;20155;-80
2023/03/15 10:10:58;;;;;;;0.40;0.40;;;10.40;69.20;;;;;;5095326;28;20670;-74
2023/03/15 10:13:42;;;;;;;0.20;0.20;;;10.20;69.60;;;;;;5095229;28;20169;-79
2023/03/15 10:16:46;;;;;;;0.20;0.20;;;9.70;74.60;;;;;;5095263;28;20170;-73
2023/03/15 10:19:36;;;;;;;0.27;0.27;;;9.10;80.90;;;;;;4993627;28;20698;-75
2023/03/15 10:22:24;;;;;;;0.37;0.20;;;8.40;87.20;;;;;;4993920;28;20328;-74
2023/03/15 10:25:03;;;;;;;0.97;0.30;;;8.10;89.10;;;;;;4994964;28;20214;-75
2023/03/15 10:27:35;;;;;;;0.20;0.20;;;7.90;89.40;;;;;;4994527;28;20173;-74
2023/03/15 10:30:11;;;;;;;0.27;0.27;;;8.00;87.70;;;;;;4994371;28;20245;-73
2023/03/15 10:32:42;;;;;;;0.20;0.20;;;8.00;87.90;;;;;;4995731;28;20174;-78
2023/03/15 10:35:18;;;;;;;0.40;0.40;;;8.20;88.10;;;;;;5001220;28;20223;-78
2023/03/15 10:37:44;;;;;;;0.40;0.40;;;8.40;88.30;;;;;;4995680;28;20176;-73
2023/03/15 10:40:15;;;;;;;28.60;14.23;;;8.70;88.20;;;;;;4994014;28;20178;-73
2023/03/15 10:42:45;;;;;;;1.10;0.80;;;8.90;88.10;;;;;;4996014;28;20208;-73
2023/03/15 10:45:23;;;;;;;0.80;0.80;;;8.90;86.80;;;;;;5037689;28;20232;-74
2023/03/15 10:47:50;;;;;;;0.60;0.60;;;9.10;87.00;;;;;;5034650;28;20186;-81
2023/03/15 10:50:37;;;;;;;0.40;0.40;;;9.00;86.40;;;;;;5033043;28;20218;-80
2023/03/15 10:53:10;;;;;;;0.40;0.40;;;8.90;83.70;;;;;;5035671;28;20164;-83
2023/03/15 10:55:44;;;;;;;0.27;0.27;;;8.90;81.90;;;;;;5103887;28;20193;-75
2023/03/15 10:58:22;;;;;;;0.40;0.40;;;8.80;81.10;;;;;;5123449;28;20167;-86
2023/03/15 11:00:58;;;;;;;0.30;0.30;;;8.90;79.20;;;;;;5115691;28;20164;-83
2023/03/15 11:03:24;;;;;;;0.23;0.20;;;9.00;79.50;;;;;;5114751;28;20566;-86
2023/03/15 11:05:55;;;;;;;0.27;0.27;;;9.20;79.00;;;;;;5115420;28;20260;-85
2023/03/15 11:08:37;;;;;;;0.27;0.27;;;9.20;77.70;;;;;;5127181;28;20169;-78
2023/03/15 11:11:03;;;;;;;0.33;0.33;;;9.20;76.00;;;;;;5115777;28;20206;-84
2023/03/15 11:13:31;;;;;;;0.30;0.30;;;9.00;74.60;;;;;;5115272;28;20758;-83
2023/03/15 11:16:32;;;;;;;0.40;0.40;;;9.00;74.50;;;;;;5113794;28;20250;-81
2023/03/15 11:19:02;;;;;;;0.43;0.43;;;9.10;76.40;;;;;;5032131;28;20180;-84
2023/03/15 11:21:33;;;;;;;0.20;0.20;;;9.20;70.70;;;;;;5032274;28;20196;-85
2023/03/15 11:24:02;;;;;;;0.73;0.20;;;9.10;70.90;;;;;;5031816;28;20187;-85
2023/03/15 11:26:34;;;;;;;0.50;0.50;;;9.20;69.40;;;;;;5031981;28;20229;-85
2023/03/15 11:29:06;;;;;;;0.40;0.40;;;9.40;69.20;;;;;;5031576;28;20236;-76
2023/03/15 11:31:34;;;;;;;0.43;0.40;;;9.60;68.30;;;;;;5014892;28;20195;-74
2023/03/15 11:34:07;;;;;;;0.30;0.30;;;9.60;67.40;;;;;;5015411;28;20212;-74
2023/03/15 11:36:38;;;;;;;0.40;0.40;;;9.30;67.50;;;;;;5015301;28;20183;-73
2023/03/15 11:39:05;;;;;;;0.50;0.50;;;9.40;68.00;;;;;;5031987;28;20540;-73
2023/03/15 11:41:51;;;;;;;0.70;0.70;;;9.50;67.30;;;;;;5032245;28;20207;-78
2023/03/15 11:44:40;;;;;;;0.97;0.40;;;9.60;66.10;;;;;;5034237;28;20236;-73
2023/03/15 11:47:34;;;;;;;0.50;0.40;;;9.50;66.30;;;;;;5032449;28;20184;-72
2023/03/15 11:50:00;;;;;;;0.40;0.40;;;9.50;65.90;;;;;;5014648;28;20253;-78
2023/03/15 11:52:28;;;;;;;2.10;0.30;;;9.60;65.50;;;;;;5014875;28;20180;-73
2023/03/15 11:54:58;;;;;;;0.40;0.40;;;9.50;65.30;;;;;;5061324;28;20317;-75
2023/03/15 11:57:39;;;;;;;0.50;0.50;;;9.70;64.30;;;;;;5113744;28;20173;-80
2023/03/15 12:00:48;;;;;;;0.47;0.47;;;9.80;63.90;;;;;;5113798;28;20177;-76
2023/03/15 12:03:33;;;;;;;0.93;0.60;;;9.70;60.90;;;;;;5014097;28;20176;-78
2023/03/15 12:06:32;;;;;;;1.10;0.60;;;9.40;61.20;;;;;;5031081;28;20275;-74
2023/03/15 12:08:59;;;;;;;0.57;0.57;;;9.30;60.70;;;;;;5030945;28;20282;-76
2023/03/15 12:11:24;;;;;;;0.53;0.40;;;9.20;61.00;;;;;;5031758;28;20309;-80
2023/03/15 12:13:52;;;;;;;0.40;0.40;;;9.20;59.90;;;;;;5034711;28;20180;-78
2023/03/15 12:16:22;;;;;;;0.50;0.50;;;8.90;60.20;;;;;;5034318;28;20175;-85
2023/03/15 12:18:49;;;;;;;0.43;0.43;;;8.80;59.90;;;;;;5040531;28;20183;-76
2023/03/15 12:21:21;;;;;;;0.47;0.47;;;8.80;59.50;;;;;;5045635;28;20595;-78
2023/03/15 12:23:54;;;;;;;0.80;0.73;;;8.80;59.30;;;;;;5037084;28;20209;-85
2023/03/15 12:26:38;;;;;;;0.60;0.60;;;8.90;59.10;;;;;;5032773;28;20179;-88
2023/03/15 12:29:11;;;;;;;0.57;0.57;;;8.80;57.70;;;;;;5016481;28;20229;-76
2023/03/15 12:31:47;;;;;;;0.60;0.60;;;8.70;57.50;;;;;;5035973;28;20214;-79
2023/03/15 12:34:21;;;;;;;0.47;0.47;;;8.90;58.30;;;;;;5036034;28;20162;-83
2023/03/15 12:36:51;;;;;;;1.40;0.50;;;9.00;56.70;;;;;;5079582;28;20176;-77
2023/03/15 12:39:17;;;;;;;1.37;0.57;;;8.90;56.60;;;;;;5126569;28;20160;-78
2023/03/15 12:41:46;;;;;;;0.93;0.60;;;9.00;56.40;;;;;;5126637;28;20239;-87
2023/03/15 12:44:23;;;;;;;0.40;0.40;;;9.00;55.10;;;;;;5109906;28;20286;-89
2023/03/15 12:46:48;;;;;;;0.50;0.50;;;9.00;55.50;;;;;;5094508;28;20181;-86
2023/03/15 12:49:23;;;;;;;1.63;0.87;;;9.00;55.50;;;;;;5093252;28;20200;-81
2023/03/15 12:52:10;;;;;;;0.50;0.50;;;9.10;55.10;;;;;;5093276;28;20182;-87
2023/03/15 12:54:53;;;;;;;1.00;0.50;;;9.00;54.80;;;;;;5093188;28;20327;-82
2023/03/15 12:57:35;;;;;;;0.50;0.50;;;8.90;55.20;;;;;;5093150;28;20157;-76
2023/03/15 13:00:34;;;;;;;0.90;0.90;;;8.90;55.00;;;;;;5093692;28;20169;-83
2023/03/15 13:03:19;;;;;;;0.50;0.50;;;8.80;54.40;;;;;;5088989;28;20187;-89
2023/03/15 13:06:07;;;;;;;0.77;0.77;;;8.80;54.30;;;;;;5093618;28;20257;-87
2023/03/15 13:09:16;;;;;;;1.03;0.50;;;8.80;54.00;;;;;;5095634;28;20179;-85